Landes Station, West Virginia
Current Conditions -  °F | °C
As of 8:55 PM on Saturday 25 Oct 2014 (Local Time) from KW99 Reporting Station
Clear Clear  
Wind Chill: 65°   Ceiling: Unl
Heat Index: 65°   Visibility: 10mi
Dew Point: 45°   Wind: 12mph
Humidity: 48%   Direction: 270°W
Pressure: 29.79"   Gusts: 21mph
Location:  38.9337°N, 79.1435°W
Report Text: KW99 260055Z AUTO 27010G18KT 10SM CLR 19/07 A2979 RMK AO2 T01850072
Loading
Personal Weather Stations






























Interactive Weather Map New forecast layout! Learn more

10-Day Weather Forecast

Advertisements
Track Severe Weather on mobile